Time;durP1;ratioP1;P1;durP2;ratioP2;P2;SDS_P1;SDS_P2;PMS_P1;PMS_P2;Temp;Humidity;BMP_temperature;BMP_pressure;BME280_temperature;BME280_humidity;BME280_pressure;Samples;Min_cycle;Max_cycle;Signal;HPM_P1;HPM_P2
2021/04/13 00:01:11;;;;;;;33.78;13.68;;;;;;;;;;4300251;33;20323;-55
2021/04/13 00:03:45;;;;;;;35.65;13.35;;;;;;;;;;4307910;33;20282;-55
2021/04/13 00:06:20;;;;;;;27.00;11.52;;;;;;;;;;4301715;33;20299;-55
2021/04/13 00:08:50;;;;;;;18.17;9.73;;;;;;;;;;4310080;33;20376;-55
2021/04/13 00:11:16;;;;;;;21.47;8.80;;;;;;;;;;4302639;33;20299;-56
2021/04/13 00:13:42;;;;;;;25.80;9.18;;;;;;;;;;4310448;33;20238;-55
2021/04/13 00:16:16;;;;;;;24.43;8.97;;;;;;;;;;4301692;33;20558;-56
2021/04/13 00:18:44;;;;;;;20.55;8.52;;;;;;;;;;4310243;33;20215;-56
2021/04/13 00:21:24;;;;;;;24.42;7.18;;;;;;;;;;4301820;33;20278;-57
2021/04/13 00:23:50;;;;;;;19.35;7.22;;;;;;;;;;4309190;33;20590;-57
2021/04/13 00:26:26;;;;;;;20.75;6.55;;;;;;;;;;4288216;33;20338;-56
2021/04/13 00:28:53;;;;;;;18.83;5.20;;;;;;;;;;4308940;33;20212;-57
2021/04/13 00:31:41;;;;;;;14.27;8.43;;;;;;;;;;4288738;33;20232;-56
2021/04/13 00:34:24;;;;;;;25.33;6.32;;;;;;;;;;4301584;33;20226;-57
2021/04/13 00:36:52;;;;;;;17.45;5.10;;;;;;;;;;4306607;33;20274;-55
2021/04/13 00:39:30;;;;;;;9.55;5.12;;;;;;;;;;4303210;33;20208;-54
2021/04/13 00:42:01;;;;;;;23.20;7.20;;;;;;;;;;4312682;33;20285;-54
2021/04/13 00:44:29;;;;;;;15.40;6.03;;;;;;;;;;4305526;33;20384;-55
2021/04/13 00:47:05;;;;;;;17.98;6.07;;;;;;;;;;4305461;33;20228;-54
2021/04/13 00:49:35;;;;;;;25.80;6.33;;;;;;;;;;4305251;33;20199;-54
2021/04/13 00:52:14;;;;;;;20.17;6.90;;;;;;;;;;4306644;33;20317;-54
2021/04/13 00:55:00;;;;;;;23.80;7.20;;;;;;;;;;4304930;33;20239;-55
2021/04/13 00:57:35;;;;;;;13.90;5.37;;;;;;;;;;4312298;33;20287;-61
2021/04/13 01:00:03;;;;;;;13.73;6.43;;;;;;;;;;4302084;33;20211;-61
2021/04/13 01:02:32;;;;;;;24.17;7.25;;;;;;;;;;4308422;33;20232;-55
2021/04/13 01:05:18;;;;;;;21.58;6.22;;;;;;;;;;4302393;33;20207;-54
2021/04/13 01:07:49;;;;;;;17.07;5.57;;;;;;;;;;4309538;33;20239;-54
2021/04/13 01:10:36;;;;;;;18.80;6.57;;;;;;;;;;4299696;33;20257;-54
2021/04/13 01:13:10;;;;;;;16.77;5.20;;;;;;;;;;4313117;33;20247;-55
2021/04/13 01:15:38;;;;;;;11.20;5.00;;;;;;;;;;4298972;33;20278;-55
2021/04/13 01:18:07;;;;;;;15.93;5.30;;;;;;;;;;4312476;33;20250;-54
2021/04/13 01:20:41;;;;;;;17.05;5.32;;;;;;;;;;4304051;33;20211;-55
2021/04/13 01:23:12;;;;;;;14.87;5.35;;;;;;;;;;4310824;33;20526;-56
2021/04/13 01:25:44;;;;;;;14.00;4.77;;;;;;;;;;4285270;33;20291;-53
2021/04/13 01:28:19;;;;;;;13.83;5.83;;;;;;;;;;4312167;33;20250;-53
2021/04/13 01:31:07;;;;;;;11.17;6.07;;;;;;;;;;4312675;33;20203;-52
2021/04/13 01:33:42;;;;;;;23.90;7.03;;;;;;;;;;4310816;33;20572;-53
2021/04/13 01:36:28;;;;;;;11.87;5.67;;;;;;;;;;4301763;33;20223;-52
2021/04/13 01:39:02;;;;;;;20.45;7.47;;;;;;;;;;4299236;33;20654;-53
2021/04/13 01:41:43;;;;;;;16.80;7.77;;;;;;;;;;4312710;33;20673;-53
2021/04/13 01:44:10;;;;;;;14.67;5.73;;;;;;;;;;4296117;33;20687;-65
2021/04/13 01:46:37;;;;;;;17.33;5.87;;;;;;;;;;4293230;33;20380;-64
2021/04/13 01:49:02;;;;;;;14.33;5.43;;;;;;;;;;4313845;33;20267;-64
2021/04/13 01:51:32;;;;;;;11.45;4.68;;;;;;;;;;4315141;33;20371;-65
2021/04/13 01:53:58;;;;;;;16.17;5.23;;;;;;;;;;4310511;33;20258;-62
2021/04/13 01:57:01;;;;;;;22.08;5.10;;;;;;;;;;4317024;33;20308;-62
2021/04/13 01:59:45;;;;;;;16.53;6.77;;;;;;;;;;4307387;33;20719;-62
2021/04/13 02:02:28;;;;;;;26.23;5.70;;;;;;;;;;4311892;33;20228;-62
2021/04/13 02:05:02;;;;;;;15.38;5.93;;;;;;;;;;4305228;33;20227;-62
2021/04/13 02:07:57;;;;;;;17.93;5.47;;;;;;;;;;4311240;33;20223;-63
2021/04/13 02:10:46;;;;;;;16.95;7.22;;;;;;;;;;4313108;33;20208;-61
2021/04/13 02:13:19;;;;;;;20.90;7.20;;;;;;;;;;4314361;33;20243;-62
2021/04/13 02:15:57;;;;;;;12.27;5.73;;;;;;;;;;4314577;33;20192;-63
2021/04/13 02:18:28;;;;;;;19.40;6.50;;;;;;;;;;4312342;33;20227;-62
2021/04/13 02:20:54;;;;;;;14.07;6.73;;;;;;;;;;4301411;33;20633;-58
2021/04/13 02:23:31;;;;;;;24.73;7.50;;;;;;;;;;4300643;33;20322;-58
2021/04/13 02:26:00;;;;;;;18.80;6.63;;;;;;;;;;4301941;33;20386;-65
2021/04/13 02:28:27;;;;;;;20.40;7.53;;;;;;;;;;4313109;33;20219;-63
2021/04/13 02:30:54;;;;;;;21.47;6.90;;;;;;;;;;4300883;33;20216;-62
2021/04/13 02:33:27;;;;;;;26.17;7.23;;;;;;;;;;4313862;33;20216;-62
2021/04/13 02:35:54;;;;;;;17.97;6.63;;;;;;;;;;4301551;33;20188;-62
2021/04/13 02:38:26;;;;;;;26.23;8.43;;;;;;;;;;4313823;33;20315;-63
2021/04/13 02:41:05;;;;;;;21.87;7.23;;;;;;;;;;4295203;33;20216;-57
2021/04/13 02:43:35;;;;;;;23.57;7.37;;;;;;;;;;4312768;33;20629;-58
2021/04/13 02:46:06;;;;;;;20.10;7.53;;;;;;;;;;4302278;33;20233;-57
2021/04/13 02:48:40;;;;;;;17.33;6.77;;;;;;;;;;4312425;33;20245;-57
2021/04/13 02:51:10;;;;;;;31.23;9.77;;;;;;;;;;4302392;33;20339;-57
2021/04/13 02:53:57;;;;;;;33.77;11.20;;;;;;;;;;4308966;33;21043;-58
2021/04/13 02:56:35;;;;;;;22.87;10.47;;;;;;;;;;4309614;33;20835;-56
2021/04/13 02:59:13;;;;;;;24.87;10.03;;;;;;;;;;4308926;33;20242;-57
2021/04/13 03:02:10;;;;;;;25.03;10.50;;;;;;;;;;4305385;33;20243;-57
2021/04/13 03:04:39;;;;;;;17.25;9.38;;;;;;;;;;4300304;33;20287;-58
2021/04/13 03:07:05;;;;;;;18.40;9.03;;;;;;;;;;4308068;33;20239;-58
2021/04/13 03:09:35;;;;;;;21.75;9.65;;;;;;;;;;4300876;33;20744;-59
2021/04/13 03:12:04;;;;;;;20.10;8.87;;;;;;;;;;4313461;33;20319;-57
2021/04/13 03:14:55;;;;;;;17.93;9.70;;;;;;;;;;4306194;33;20232;-58
2021/04/13 03:17:26;;;;;;;21.37;8.53;;;;;;;;;;4309636;33;20242;-59
2021/04/13 03:20:00;;;;;;;20.17;8.93;;;;;;;;;;4304397;33;20578;-60
2021/04/13 03:22:26;;;;;;;25.87;9.23;;;;;;;;;;4309639;33;20279;-60
2021/04/13 03:24:53;;;;;;;23.93;9.43;;;;;;;;;;4304108;33;20238;-57
2021/04/13 03:27:23;;;;;;;21.23;8.47;;;;;;;;;;4309116;33;20560;-57
2021/04/13 03:30:00;;;;;;;14.00;8.63;;;;;;;;;;4304231;33;20203;-60
2021/04/13 03:32:29;;;;;;;23.17;10.63;;;;;;;;;;4296443;33;20515;-57
2021/04/13 03:34:55;;;;;;;22.53;10.87;;;;;;;;;;4303786;33;20233;-57
2021/04/13 03:37:22;;;;;;;22.23;11.53;;;;;;;;;;4309272;33;20282;-55
2021/04/13 03:39:48;;;;;;;22.27;10.07;;;;;;;;;;4307469;33;20207;-57
2021/04/13 03:42:27;;;;;;;24.53;10.07;;;;;;;;;;4313134;33;20223;-59
2021/04/13 03:44:55;;;;;;;29.30;11.20;;;;;;;;;;4300306;33;20228;-60
2021/04/13 03:47:26;;;;;;;24.77;10.40;;;;;;;;;;4313299;33;20254;-59
2021/04/13 03:49:52;;;;;;;30.17;10.00;;;;;;;;;;4303895;33;20238;-58
2021/04/13 03:52:25;;;;;;;17.57;9.63;;;;;;;;;;4306374;33;20282;-58
2021/04/13 03:54:51;;;;;;;27.23;10.07;;;;;;;;;;4297891;33;20261;-57
2021/04/13 03:57:29;;;;;;;18.50;9.27;;;;;;;;;;4312961;33;20220;-58
2021/04/13 03:59:57;;;;;;;24.73;11.80;;;;;;;;;;4303423;33;20594;-57
2021/04/13 04:02:22;;;;;;;16.83;9.67;;;;;;;;;;4309406;33;20265;-57
2021/04/13 04:05:01;;;;;;;35.63;11.20;;;;;;;;;;4303858;33;20355;-58
2021/04/13 04:07:38;;;;;;;28.70;11.07;;;;;;;;;;4309145;33;20342;-56
2021/04/13 04:10:27;;;;;;;20.10;10.63;;;;;;;;;;4289128;33;20231;-56
2021/04/13 04:12:58;;;;;;;19.63;9.70;;;;;;;;;;4312075;33;20242;-57
2021/04/13 04:15:47;;;;;;;26.17;11.43;;;;;;;;;;4299448;33;20254;-57
2021/04/13 04:18:40;;;;;;;27.87;10.57;;;;;;;;;;4312144;33;20704;-57
2021/04/13 04:21:32;;;;;;;28.73;11.50;;;;;;;;;;4313205;33;20226;-57
2021/04/13 04:24:22;;;;;;;25.20;9.80;;;;;;;;;;4310843;33;20351;-57
2021/04/13 04:26:51;;;;;;;22.23;10.30;;;;;;;;;;4311628;33;20582;-58
2021/04/13 04:29:22;;;;;;;33.23;10.67;;;;;;;;;;4312337;33;20334;-65
2021/04/13 04:31:48;;;;;;;21.73;10.67;;;;;;;;;;4305938;33;20241;-65
2021/04/13 04:34:14;;;;;;;23.70;10.80;;;;;;;;;;4299375;33;20270;-65
2021/04/13 04:36:41;;;;;;;23.47;10.90;;;;;;;;;;4312823;33;20625;-64
2021/04/13 04:39:26;;;;;;;37.80;13.30;;;;;;;;;;4304956;33;20274;-64
2021/04/13 04:41:54;;;;;;;24.27;13.33;;;;;;;;;;4305834;33;20218;-66
2021/04/13 04:44:29;;;;;;;22.47;15.97;;;;;;;;;;4306118;33;20827;-66
2021/04/13 04:47:01;;;;;;;26.40;12.37;;;;;;;;;;4306011;33;20561;-66
2021/04/13 04:49:39;;;;;;;25.47;11.03;;;;;;;;;;4305826;33;20286;-66
2021/04/13 04:52:06;;;;;;;25.13;13.00;;;;;;;;;;4307399;33;20211;-63
2021/04/13 04:54:31;;;;;;;38.07;15.53;;;;;;;;;;4300033;33;20279;-64
2021/04/13 04:56:57;;;;;;;25.90;14.10;;;;;;;;;;4306230;33;20215;-64
2021/04/13 04:59:22;;;;;;;33.10;15.83;;;;;;;;;;4306429;33;20391;-64
2021/04/13 05:01:48;;;;;;;31.37;18.77;;;;;;;;;;4304362;33;20680;-65
2021/04/13 05:04:14;;;;;;;38.83;21.80;;;;;;;;;;4307432;33;20810;-65
2021/04/13 05:06:40;;;;;;;27.43;13.53;;;;;;;;;;4304028;33;20402;-63
2021/04/13 05:09:05;;;;;;;35.13;16.27;;;;;;;;;;4304133;33;20373;-64
2021/04/13 05:11:31;;;;;;;33.57;17.63;;;;;;;;;;4304389;33;20360;-66
2021/04/13 05:13:56;;;;;;;33.07;17.40;;;;;;;;;;4295477;33;20306;-67
2021/04/13 05:16:24;;;;;;;35.73;16.43;;;;;;;;;;4308804;33;20306;-66
2021/04/13 05:18:49;;;;;;;31.07;16.47;;;;;;;;;;4311142;33;20574;-66
2021/04/13 05:21:16;;;;;;;26.57;15.67;;;;;;;;;;4303478;33;20309;-67
2021/04/13 05:23:42;;;;;;;37.30;19.17;;;;;;;;;;4312654;33;20244;-67
2021/04/13 05:26:09;;;;;;;31.70;15.97;;;;;;;;;;4303687;33;20727;-66
2021/04/13 05:28:35;;;;;;;25.87;15.67;;;;;;;;;;4313572;33;20259;-66
2021/04/13 05:31:01;;;;;;;31.20;14.40;;;;;;;;;;4303521;33;20402;-66
2021/04/13 05:33:27;;;;;;;29.33;15.57;;;;;;;;;;4300979;33;20243;-65
2021/04/13 05:35:53;;;;;;;26.87;17.27;;;;;;;;;;4300723;33;20292;-66
2021/04/13 05:38:42;;;;;;;42.30;20.47;;;;;;;;;;4300038;33;20240;-67
2021/04/13 05:41:10;;;;;;;31.43;19.57;;;;;;;;;;4297073;33;20247;-69
2021/04/13 05:43:38;;;;;;;32.55;18.27;;;;;;;;;;4308094;33;21226;-67
2021/04/13 05:46:04;;;;;;;37.05;20.88;;;;;;;;;;4308903;33;20310;-67
2021/04/13 05:48:29;;;;;;;32.87;16.70;;;;;;;;;;4310251;33;20703;-64
2021/04/13 05:50:56;;;;;;;26.08;12.82;;;;;;;;;;4301383;33;20445;-66
2021/04/13 05:53:21;;;;;;;28.60;11.38;;;;;;;;;;4314520;33;20259;-66
2021/04/13 05:55:48;;;;;;;19.03;9.03;;;;;;;;;;4309919;33;20317;-65
2021/04/13 05:58:20;;;;;;;20.92;10.73;;;;;;;;;;4315289;33;20343;-66
2021/04/13 06:00:51;;;;;;;25.50;9.90;;;;;;;;;;4313908;33;20304;-65
2021/04/13 06:03:19;;;;;;;22.77;11.50;;;;;;;;;;4315564;33;20235;-65
2021/04/13 06:05:45;;;;;;;21.00;9.90;;;;;;;;;;4310308;33;20266;-65
2021/04/13 06:08:11;;;;;;;21.63;10.33;;;;;;;;;;4313264;33;20223;-64
2021/04/13 06:10:37;;;;;;;28.93;11.73;;;;;;;;;;4313651;33;20252;-64
2021/04/13 06:13:04;;;;;;;24.52;8.85;;;;;;;;;;4313166;33;20251;-61
2021/04/13 06:15:31;;;;;;;21.62;10.30;;;;;;;;;;4318615;33;20228;-60
2021/04/13 06:17:57;;;;;;;17.03;10.70;;;;;;;;;;4311215;33;20223;-64
2021/04/13 06:20:24;;;;;;;21.93;10.87;;;;;;;;;;4305817;33;20371;-62
2021/04/13 06:22:50;;;;;;;25.50;11.10;;;;;;;;;;4315173;33;20749;-66
2021/04/13 06:25:22;;;;;;;17.57;7.90;;;;;;;;;;4312029;33;20336;-65
2021/04/13 06:27:48;;;;;;;13.17;7.47;;;;;;;;;;4309599;33;20262;-65
2021/04/13 06:30:16;;;;;;;14.20;7.57;;;;;;;;;;4312440;33;20257;-61
2021/04/13 06:32:41;;;;;;;20.03;9.17;;;;;;;;;;4312790;33;20354;-60
2021/04/13 06:35:08;;;;;;;28.47;9.33;;;;;;;;;;4312588;33;20361;-59
2021/04/13 06:37:35;;;;;;;18.58;9.52;;;;;;;;;;4312428;33;20227;-60
2021/04/13 06:40:05;;;;;;;23.53;10.20;;;;;;;;;;4305794;33;20235;-60
2021/04/13 06:42:58;;;;;;;22.03;10.47;;;;;;;;;;4312382;33;20302;-61
2021/04/13 06:45:42;;;;;;;23.97;8.53;;;;;;;;;;4309077;33;20757;-60
2021/04/13 06:48:11;;;;;;;14.87;8.50;;;;;;;;;;4309051;33;20239;-61
2021/04/13 06:50:48;;;;;;;23.20;11.70;;;;;;;;;;4303125;33;20352;-60
2021/04/13 06:53:53;;;;;;;34.67;16.63;;;;;;;;;;4311947;33;20223;-60
2021/04/13 06:56:40;;;;;;;30.20;12.83;;;;;;;;;;4308722;33;20347;-60
2021/04/13 06:59:27;;;;;;;26.57;13.27;;;;;;;;;;4300951;33;20270;-61
2021/04/13 07:01:57;;;;;;;19.90;10.87;;;;;;;;;;4314172;33;20288;-60
2021/04/13 07:04:53;;;;;;;25.97;11.50;;;;;;;;;;4312336;33;20216;-61
2021/04/13 07:07:44;;;;;;;25.33;10.82;;;;;;;;;;4313767;33;20270;-60
2021/04/13 07:10:22;;;;;;;23.50;11.40;;;;;;;;;;4309807;33;20417;-60
2021/04/13 07:13:21;;;;;;;28.35;13.48;;;;;;;;;;4313524;33;20258;-60
2021/04/13 07:15:52;;;;;;;18.53;9.83;;;;;;;;;;4313107;33;20302;-60
2021/04/13 07:18:46;;;;;;;16.55;8.77;;;;;;;;;;4313726;33;20232;-61
2021/04/13 07:21:37;;;;;;;19.97;10.97;;;;;;;;;;4290267;33;20215;-60
2021/04/13 07:24:09;;;;;;;17.05;10.57;;;;;;;;;;4310969;33;20334;-60
2021/04/13 07:26:46;;;;;;;20.13;10.57;;;;;;;;;;4300219;33;20228;-60
2021/04/13 07:29:22;;;;;;;19.33;10.00;;;;;;;;;;4300873;33;20239;-58
2021/04/13 07:32:02;;;;;;;27.37;11.07;;;;;;;;;;4314088;33;20274;-58
2021/04/13 07:34:29;;;;;;;23.73;10.63;;;;;;;;;;4314152;33;20277;-58
2021/04/13 07:37:04;;;;;;;45.45;18.98;;;;;;;;;;4310047;33;20251;-61
2021/04/13 07:39:30;;;;;;;26.00;9.93;;;;;;;;;;4303594;33;20333;-60
2021/04/13 07:42:05;;;;;;;24.77;12.83;;;;;;;;;;4308484;33;20286;-60
2021/04/13 07:44:40;;;;;;;18.10;9.32;;;;;;;;;;4300604;33;20223;-60
2021/04/13 07:47:32;;;;;;;24.65;8.50;;;;;;;;;;4313305;33;20703;-60
2021/04/13 07:49:58;;;;;;;28.70;11.80;;;;;;;;;;4313900;33;20220;-61
2021/04/13 07:52:45;;;;;;;35.75;12.15;;;;;;;;;;4311097;33;20286;-59
2021/04/13 07:55:26;;;;;;;16.23;8.30;;;;;;;;;;4307903;33;20225;-61
2021/04/13 07:58:08;;;;;;;21.83;10.13;;;;;;;;;;4310568;33;20236;-62
2021/04/13 08:00:38;;;;;;;115.13;40.20;;;;;;;;;;4312789;33;20306;-59
2021/04/13 08:03:25;;;;;;;29.37;15.02;;;;;;;;;;4292520;33;20209;-60
2021/04/13 08:05:57;;;;;;;26.80;11.80;;;;;;;;;;4313152;33;20203;-60
2021/04/13 08:08:22;;;;;;;23.00;9.53;;;;;;;;;;4311564;33;20223;-61
2021/04/13 08:10:48;;;;;;;20.65;10.70;;;;;;;;;;4311376;33;20381;-61
2021/04/13 08:13:29;;;;;;;40.13;21.67;;;;;;;;;;4305587;33;20215;-61
2021/04/13 08:15:55;;;;;;;25.88;12.90;;;;;;;;;;4310127;33;20277;-61
2021/04/13 08:18:40;;;;;;;21.03;10.43;;;;;;;;;;4308144;33;20223;-61
2021/04/13 08:21:33;;;;;;;22.20;9.68;;;;;;;;;;4311872;33;20345;-60
2021/04/13 08:23:59;;;;;;;18.40;8.95;;;;;;;;;;4304946;33;20295;-61
2021/04/13 08:26:31;;;;;;;20.43;11.03;;;;;;;;;;4302478;33;20241;-61
2021/04/13 08:29:24;;;;;;;15.93;9.53;;;;;;;;;;4310626;33;20320;-61
2021/04/13 08:35:21;;;;;;;16.20;8.10;;;;;;;;;;4311204;33;20265;-61
2021/04/13 08:38:04;;;;;;;18.60;8.30;;;;;;;;;;4311007;33;20328;-60
2021/04/13 08:40:35;;;;;;;23.60;9.87;;;;;;;;;;4300164;33;20271;-59
2021/04/13 08:43:17;;;;;;;29.57;16.33;;;;;;;;;;4306837;33;20219;-60
2021/04/13 08:46:08;;;;;;;32.67;16.43;;;;;;;;;;4300105;33;20331;-60
2021/04/13 08:48:42;;;;;;;35.60;14.97;;;;;;;;;;4309474;33;20709;-60
2021/04/13 08:51:11;;;;;;;33.60;16.87;;;;;;;;;;4306461;33;20259;-60
2021/04/13 08:53:42;;;;;;;161.15;73.37;;;;;;;;;;4312645;33;20404;-60
2021/04/13 08:56:24;;;;;;;75.17;37.90;;;;;;;;;;4311446;33;20369;-61
2021/04/13 08:58:53;;;;;;;35.13;16.13;;;;;;;;;;4312387;33;20242;-60
2021/04/13 09:01:31;;;;;;;33.07;12.83;;;;;;;;;;4313553;33;20243;-60
2021/04/13 09:03:59;;;;;;;38.93;18.57;;;;;;;;;;4314579;33;20328;-61
2021/04/13 09:06:45;;;;;;;93.03;43.63;;;;;;;;;;4313685;33;20240;-60
2021/04/13 09:09:13;;;;;;;40.03;15.73;;;;;;;;;;4315769;33;20230;-60
2021/04/13 09:12:03;;;;;;;38.00;15.63;;;;;;;;;;4312270;33;20663;-61
2021/04/13 09:14:44;;;;;;;383.97;176.97;;;;;;;;;;4314952;33;20247;-61
2021/04/13 09:17:19;;;;;;;81.57;38.90;;;;;;;;;;4310821;33;20254;-60
2021/04/13 09:20:13;;;;;;;40.60;21.33;;;;;;;;;;4314934;33;20207;-61
2021/04/13 09:22:47;;;;;;;110.83;60.73;;;;;;;;;;4312360;33;20550;-60
2021/04/13 09:25:26;;;;;;;46.97;23.60;;;;;;;;;;4315792;33;20636;-59
2021/04/13 09:28:02;;;;;;;57.00;35.30;;;;;;;;;;4309008;33;20246;-60
2021/04/13 09:30:33;;;;;;;35.87;21.50;;;;;;;;;;4302485;33;20246;-60
2021/04/13 09:33:12;;;;;;;36.43;21.57;;;;;;;;;;4312081;33;20251;-61
2021/04/13 09:36:08;;;;;;;30.70;12.80;;;;;;;;;;4312847;33;20207;-62
2021/04/13 09:38:51;;;;;;;33.73;17.10;;;;;;;;;;4309830;33;20334;-60
2021/04/13 09:41:51;;;;;;;27.53;19.67;;;;;;;;;;4313949;33;20306;-61
2021/04/13 09:44:41;;;;;;;33.05;17.90;;;;;;;;;;4311235;33;20289;-60
2021/04/13 09:47:37;;;;;;;25.33;14.70;;;;;;;;;;4312205;33;20216;-61
2021/04/13 09:50:12;;;;;;;77.27;35.40;;;;;;;;;;4314160;33;20285;-59
2021/04/13 09:53:02;;;;;;;134.93;65.23;;;;;;;;;;4310843;33;20340;-63
2021/04/13 09:55:39;;;;;;;64.80;32.47;;;;;;;;;;4313989;33;20239;-62
2021/04/13 09:58:07;;;;;;;162.00;85.07;;;;;;;;;;4306586;33;20269;-64
2021/04/13 10:00:57;;;;;;;298.07;175.23;;;;;;;;;;4315204;33;20697;-66
2021/04/13 10:03:41;;;;;;;107.80;62.03;;;;;;;;;;4299682;33;20236;-67
2021/04/13 10:06:09;;;;;;;142.48;84.10;;;;;;;;;;4312593;33;20290;-67
2021/04/13 10:08:38;;;;;;;73.93;40.83;;;;;;;;;;4298402;33;20239;-66
2021/04/13 10:11:10;;;;;;;36.43;19.70;;;;;;;;;;4312577;33;20617;-66
2021/04/13 10:14:03;;;;;;;35.20;19.10;;;;;;;;;;4310473;33;20247;-65
2021/04/13 10:16:47;;;;;;;42.40;20.67;;;;;;;;;;4310920;33;20636;-65
2021/04/13 10:19:29;;;;;;;44.17;21.00;;;;;;;;;;4313939;33;20240;-66
2021/04/13 10:22:32;;;;;;;249.57;146.93;;;;;;;;;;4309561;33;20316;-65
2021/04/13 10:25:04;;;;;;;96.03;67.80;;;;;;;;;;4305808;33;20621;-68
2021/04/13 10:27:59;;;;;;;39.40;24.87;;;;;;;;;;4313720;33;20220;-63
2021/04/13 10:30:33;;;;;;;46.60;25.10;;;;;;;;;;4311274;33;20601;-61
2021/04/13 10:33:36;;;;;;;40.27;25.10;;;;;;;;;;4309664;33;20219;-61
2021/04/13 10:36:16;;;;;;;43.97;22.30;;;;;;;;;;4307320;33;20294;-69
2021/04/13 10:39:00;;;;;;;37.93;21.90;;;;;;;;;;4309273;33;20211;-68
2021/04/13 10:42:21;;;;;;;37.27;21.33;;;;;;;;;;4312797;33;20597;-67
2021/04/13 10:45:08;;;;;;;39.97;20.63;;;;;;;;;;4311339;33;20574;-67
2021/04/13 10:47:37;;;;;;;29.97;15.80;;;;;;;;;;4309726;33;20249;-67
2021/04/13 10:50:26;;;;;;;32.73;18.87;;;;;;;;;;4313326;33;20211;-66
2021/04/13 10:53:08;;;;;;;30.13;20.70;;;;;;;;;;4312447;33;20266;-65
2021/04/13 10:55:56;;;;;;;34.07;22.27;;;;;;;;;;4313396;33;20223;-65
2021/04/13 10:58:53;;;;;;;46.00;20.33;;;;;;;;;;4298953;33;20234;-65
2021/04/13 11:01:44;;;;;;;25.13;17.63;;;;;;;;;;4306998;33;20442;-66
2021/04/13 11:04:10;;;;;;;27.33;15.07;;;;;;;;;;4313558;33;20658;-66
2021/04/13 11:07:25;;;;;;;35.73;16.83;;;;;;;;;;4309026;33;20228;-64
2021/04/13 11:10:38;;;;;;;26.07;17.10;;;;;;;;;;4314080;33;20238;-63
2021/04/13 11:13:31;;;;;;;31.73;17.30;;;;;;;;;;4312442;33;20298;-65
2021/04/13 11:16:00;;;;;;;36.80;18.57;;;;;;;;;;4309054;33;20258;-64
2021/04/13 11:18:34;;;;;;;34.60;20.40;;;;;;;;;;4310399;33;20836;-64
2021/04/13 11:21:44;;;;;;;47.42;21.55;;;;;;;;;;4299695;33;20671;-64
2021/04/13 11:24:43;;;;;;;19.27;7.70;;;;;;;;;;4311637;33;20376;-64
2021/04/13 11:27:37;;;;;;;13.63;6.33;;;;;;;;;;4311485;33;20327;-64
2021/04/13 11:30:24;;;;;;;11.93;6.20;;;;;;;;;;4309637;33;20246;-65
2021/04/13 11:33:17;;;;;;;18.43;7.43;;;;;;;;;;4313669;33;20246;-64
2021/04/13 11:36:11;;;;;;;16.37;6.30;;;;;;;;;;4300163;33;20717;-60
2021/04/13 11:38:52;;;;;;;7.97;5.50;;;;;;;;;;4313270;33;20326;-61
2021/04/13 11:41:36;;;;;;;15.05;6.95;;;;;;;;;;4297888;33;20227;-60
2021/04/13 11:44:30;;;;;;;15.07;5.47;;;;;;;;;;4313685;33;20657;-60
2021/04/13 11:47:08;;;;;;;12.33;6.33;;;;;;;;;;4309743;33;20307;-61
2021/04/13 11:50:02;;;;;;;14.27;7.43;;;;;;;;;;4308341;33;20239;-60
2021/04/13 11:52:40;;;;;;;13.38;7.10;;;;;;;;;;4309383;33;20262;-61
2021/04/13 11:55:33;;;;;;;14.57;7.60;;;;;;;;;;4298893;33;20278;-61
2021/04/13 11:58:24;;;;;;;16.67;11.50;;;;;;;;;;4306899;33;20312;-62
2021/04/13 12:01:12;;;;;;;16.73;5.97;;;;;;;;;;4306631;33;20248;-62
2021/04/13 12:03:40;;;;;;;18.30;9.80;;;;;;;;;;4306793;33;20235;-60
2021/04/13 12:06:12;;;;;;;14.30;6.90;;;;;;;;;;4308966;33;20400;-62
2021/04/13 12:08:49;;;;;;;9.80;4.60;;;;;;;;;;4312861;33;20261;-62
2021/04/13 12:11:36;;;;;;;11.45;5.90;;;;;;;;;;4308869;33;20233;-62
2021/04/13 12:14:29;;;;;;;17.47;6.80;;;;;;;;;;4313688;33;20245;-61
2021/04/13 12:16:55;;;;;;;23.90;7.57;;;;;;;;;;4299925;33;20558;-62
2021/04/13 12:19:22;;;;;;;20.50;8.30;;;;;;;;;;4303212;33;20526;-62
2021/04/13 12:22:22;;;;;;;11.77;7.33;;;;;;;;;;4313333;33;20261;-62
2021/04/13 12:24:50;;;;;;;17.23;11.13;;;;;;;;;;4313166;33;20224;-62
2021/04/13 12:27:35;;;;;;;20.53;11.53;;;;;;;;;;4312643;33;20298;-62
2021/04/13 12:30:25;;;;;;;19.17;10.90;;;;;;;;;;4310388;33;20447;-64
2021/04/13 12:32:52;;;;;;;25.50;16.67;;;;;;;;;;4312922;33;20294;-61
2021/04/13 12:35:46;;;;;;;24.70;15.30;;;;;;;;;;4299688;33;20220;-62
2021/04/13 12:38:43;;;;;;;18.98;11.35;;;;;;;;;;4313367;33;20292;-63
2021/04/13 12:41:21;;;;;;;17.00;9.75;;;;;;;;;;4307504;33;20248;-62
2021/04/13 12:43:49;;;;;;;16.73;7.67;;;;;;;;;;4312539;33;20306;-62
2021/04/13 12:46:26;;;;;;;17.80;8.70;;;;;;;;;;4311555;33;20216;-63
2021/04/13 12:48:54;;;;;;;15.47;8.13;;;;;;;;;;4312891;33;20214;-62
2021/04/13 12:51:24;;;;;;;18.93;12.20;;;;;;;;;;4308775;33;20232;-62
2021/04/13 12:54:07;;;;;;;14.93;9.05;;;;;;;;;;4311658;33;20279;-62
2021/04/13 12:56:33;;;;;;;25.77;12.60;;;;;;;;;;4311845;33;20239;-61
2021/04/13 12:59:27;;;;;;;30.40;13.50;;;;;;;;;;4297862;33;20625;-62
2021/04/13 13:01:53;;;;;;;20.87;11.30;;;;;;;;;;4310726;33;20504;-66
2021/04/13 13:04:22;;;;;;;14.27;8.33;;;;;;;;;;4286695;33;20344;-65
2021/04/13 13:06:55;;;;;;;17.23;8.10;;;;;;;;;;4312740;33;20287;-62
2021/04/13 13:09:34;;;;;;;19.43;9.63;;;;;;;;;;4311978;33;20253;-66
2021/04/13 13:12:19;;;;;;;15.93;8.10;;;;;;;;;;4312002;33;20711;-66
2021/04/13 13:14:47;;;;;;;18.92;8.63;;;;;;;;;;4312894;33;20216;-66
2021/04/13 13:17:25;;;;;;;35.03;22.33;;;;;;;;;;4312681;33;20215;-66
2021/04/13 13:19:52;;;;;;;57.93;37.43;;;;;;;;;;4313404;33;20230;-61
2021/04/13 13:22:24;;;;;;;16.87;9.35;;;;;;;;;;4312856;33;20227;-61
2021/04/13 13:24:51;;;;;;;18.47;10.03;;;;;;;;;;4310588;33;20209;-61
2021/04/13 13:27:26;;;;;;;17.80;9.17;;;;;;;;;;4301368;33;20747;-60
2021/04/13 13:29:51;;;;;;;18.03;8.63;;;;;;;;;;4313150;33;20662;-61
2021/04/13 13:32:20;;;;;;;17.00;7.90;;;;;;;;;;4312490;33;20215;-61
2021/04/13 13:34:48;;;;;;;12.70;5.37;;;;;;;;;;4309306;33;20216;-61
2021/04/13 13:37:14;;;;;;;11.73;4.68;;;;;;;;;;4298570;33;20550;-60
2021/04/13 13:39:40;;;;;;;16.23;5.70;;;;;;;;;;4299496;33;20278;-60
2021/04/13 13:42:11;;;;;;;22.70;13.30;;;;;;;;;;4313071;33;20294;-61
2021/04/13 13:44:47;;;;;;;18.20;9.35;;;;;;;;;;4316205;33;20263;-61
2021/04/13 13:47:21;;;;;;;13.38;6.87;;;;;;;;;;4315990;33;20610;-61
2021/04/13 13:49:52;;;;;;;15.98;5.72;;;;;;;;;;4315435;33;20655;-61
2021/04/13 13:52:36;;;;;;;16.87;7.77;;;;;;;;;;4314988;33;20227;-61
2021/04/13 13:55:16;;;;;;;9.97;6.20;;;;;;;;;;4314531;33;20252;-61
2021/04/13 13:57:56;;;;;;;14.57;6.97;;;;;;;;;;4309001;33;20207;-61
2021/04/13 14:00:47;;;;;;;12.90;5.33;;;;;;;;;;4307258;33;20207;-61
2021/04/13 14:03:33;;;;;;;13.97;6.77;;;;;;;;;;4307775;33;20254;-61
2021/04/13 14:06:14;;;;;;;16.33;6.63;;;;;;;;;;4305561;33;21089;-60
2021/04/13 14:08:48;;;;;;;12.20;6.47;;;;;;;;;;4313762;33;20227;-61
2021/04/13 14:11:19;;;;;;;16.87;6.80;;;;;;;;;;4308564;33;20232;-60
2021/04/13 14:13:56;;;;;;;10.37;6.23;;;;;;;;;;4315603;33;20270;-60
2021/04/13 14:16:41;;;;;;;23.33;9.13;;;;;;;;;;4313640;33;20215;-60
2021/04/13 14:19:19;;;;;;;21.40;8.63;;;;;;;;;;4314803;33;20238;-61
2021/04/13 14:21:44;;;;;;;15.50;5.70;;;;;;;;;;4311902;33;20295;-60
2021/04/13 14:24:32;;;;;;;13.13;5.83;;;;;;;;;;4315816;33;20678;-61
2021/04/13 14:27:03;;;;;;;12.77;6.70;;;;;;;;;;4314781;33;20606;-61
2021/04/13 14:29:30;;;;;;;20.13;7.23;;;;;;;;;;4313620;33;20270;-60
2021/04/13 14:31:57;;;;;;;14.57;8.17;;;;;;;;;;4312787;33;20219;-60
2021/04/13 14:34:26;;;;;;;18.17;8.43;;;;;;;;;;4314104;33;20295;-61
2021/04/13 14:37:24;;;;;;;16.80;9.63;;;;;;;;;;4311356;33;20294;-60
2021/04/13 14:40:04;;;;;;;15.93;7.47;;;;;;;;;;4296609;33;20697;-59
2021/04/13 14:42:30;;;;;;;15.63;8.83;;;;;;;;;;4313131;33;20669;-61
2021/04/13 14:44:56;;;;;;;19.57;8.60;;;;;;;;;;4311607;33;20309;-60
2021/04/13 14:47:33;;;;;;;24.07;8.57;;;;;;;;;;4311327;33;20227;-60
2021/04/13 14:50:01;;;;;;;22.60;9.73;;;;;;;;;;4310688;33;20223;-60
2021/04/13 14:52:28;;;;;;;17.37;10.63;;;;;;;;;;4310747;33;20364;-60
2021/04/13 14:54:54;;;;;;;14.27;7.63;;;;;;;;;;4303590;33;20204;-60
2021/04/13 14:57:21;;;;;;;14.83;9.20;;;;;;;;;;4313446;33;21802;-61
2021/04/13 14:59:47;;;;;;;20.93;9.93;;;;;;;;;;4312583;33;20370;-61
2021/04/13 15:02:13;;;;;;;14.20;8.77;;;;;;;;;;4314531;33;20269;-60
2021/04/13 15:04:38;;;;;;;16.90;8.40;;;;;;;;;;4299600;33;20302;-61
2021/04/13 15:07:04;;;;;;;15.97;9.27;;;;;;;;;;4313455;33;20285;-60
2021/04/13 15:09:34;;;;;;;25.93;8.80;;;;;;;;;;4300274;33;20358;-60
2021/04/13 15:11:59;;;;;;;19.03;9.17;;;;;;;;;;4313478;33;20254;-61
2021/04/13 15:14:25;;;;;;;18.27;10.27;;;;;;;;;;4306342;33;20357;-59
2021/04/13 15:16:53;;;;;;;17.63;9.43;;;;;;;;;;4311927;33;20581;-60
2021/04/13 15:19:22;;;;;;;24.37;14.90;;;;;;;;;;4312208;33;20215;-59